This is the latest recevied weather packets stored in our database for station/object KQ4NAL. If no packets are shown the sender has not sent any weather packets the latest 10 day(s).
| Time | Temp. | Humidity | Pressure | Rain* | Wind** | Luminosity | Snow |
|---|---|---|---|---|---|---|---|
| 1777567221 | 12.78° C | 58% | 1017.9 hPa | 0 mm | - | 227 W/m² | - |
| 1777566919 | 12.78° C | 59% | 1018.3 hPa | 0 mm | - | 292 W/m² | - |
| 1777566616 | 12.22° C | 62% | 1018.1 hPa | 0 mm | - | 893 W/m² | - |
| 1777566314 | 11.67° C | 64% | 1018.2 hPa | 0 mm | - | 885 W/m² | - |
| 1777566011 | 12.22° C | 63% | 1018.4 hPa | 0 mm | - | 921 W/m² | - |
| 1777565707 | 11.11° C | 66% | 1018.5 hPa | 0 mm | - | 924 W/m² | - |
| 1777565403 | 11.11° C | 65% | 1018.5 hPa | 0 mm | - | 559 W/m² | - |
| 1777565100 | 10.56° C | 69% | 1018.6 hPa | 0 mm | - | 217 W/m² | - |
| 1777564796 | 10.56° C | 70% | 1018.4 hPa | 0 mm | - | 217 W/m² | - |
| 1777564496 | 11.11° C | 68% | 1018.2 hPa | 0 mm | - | 185 W/m² | - |
| 1777564192 | 10.56° C | 68% | 1018.5 hPa | 0 mm | - | 396 W/m² | - |
| 1777563889 | 10.56° C | 67% | 1018.7 hPa | 0 mm | - | 131 W/m² | - |
| 1777563585 | 11.11° C | 67% | 1018.6 hPa | 0 mm | - | 286 W/m² | - |
| 1777563285 | 11.11° C | 70% | 1018.6 hPa | 0 mm | - | 948 W/m² | - |
| 1777562981 | 10.56° C | 70% | 1018.5 hPa | 0 mm | - | 243 W/m² | - |
| 1777562677 | 10.56° C | 70% | 1018.5 hPa | 0 mm | - | 592 W/m² | - |
| 1777562377 | 10.56° C | 69% | 1018.5 hPa | 0 mm | - | 296 W/m² | - |
| 1777562073 | 10.56° C | 69% | 1018.5 hPa | 0 mm | - | 165 W/m² | - |
| 1777561770 | 10.56° C | 69% | 1018.5 hPa | 0 mm | - | 999 W/m² | - |
| 1777561466 | 10° C | 71% | 1018.5 hPa | 0 mm | - | 481 W/m² | - |
| 1777561161 | 10° C | 71% | 1018.5 hPa | 0 mm | - | 397 W/m² | - |
| 1777560856 | 10° C | 71% | 1018.2 hPa | 0 mm | - | 943 W/m² | - |
| 1777560555 | 9.44° C | 74% | 1018.6 hPa | 0 mm | - | 786 W/m² | - |
| 1777560252 | 9.44° C | 73% | 1018.4 hPa | 0 mm | - | 318 W/m² | - |
| 1777559949 | 10° C | 73% | 1018.4 hPa | 0 mm | - | 299 W/m² | - |
* Rain latest hour (hover to see other rain measurements)
** Current wind speed in m/s (hover to see current wind gust speed)